ESSV/VBY METAR and TAF weather

Enter ICAO airport designator
Station Type Date Time Source
ESSV METAR 2021/07/27 22:20 UTC NOAA

ESSV 272220Z AUTO 18002KT 0100 R03/0900N R21/0600N FG NCD 16/16 Q1009


Station Type Date Time Source
ESSV Decoded METAR 2021/07/27 22:20 UTC NOAA

Visby Flygplats, Sweden (ESSV) 57-40N 018-21E 47M
Jul 27, 2021 - 06:20 PM EDT / 2021.07.27 2220 UTC
Wind: from the S (180 degrees) at 2 MPH (2 KT):0
Visibility: less than 1 mile:0
Weather: fog
Temperature: 60 F (16 C)
Dew Point: 60 F (16 C)
Relative Humidity: 100%
Pressure (altimeter): 29.80 in. Hg (1009 hPa)
ob: ESSV 272220Z AUTO 18002KT 0100 R03/0900N R21/0600N FG NCD 16/16 Q1009
cycle: 22

Station Type Date Time Source
ESSV TAF 2017/09/20 09:39 UTC NOAA

TAF COR TAF COR ESSV 200840Z 2009/2021 10005KT 9999 BKN030 PROB40 2009/2016 4000 TS SHRA BKN015CB

Example: see airport list